sensor_id;sensor_type;location;lat;lon;timestamp;pressure;altitude;pressure_sealevel;temperature;humidity
36502;BME280;25393;46.108;3.390;2022-09-30T00:01:33;97048.50;;;9.18;100.00
36502;BME280;25393;46.108;3.390;2022-09-30T00:04:00;97069.38;;;9.28;100.00
36502;BME280;25393;46.108;3.390;2022-09-30T00:06:28;97074.59;;;9.21;100.00
36502;BME280;25393;46.108;3.390;2022-09-30T00:08:56;97074.13;;;9.18;100.00
36502;BME280;25393;46.108;3.390;2022-09-30T00:11:29;97077.97;;;9.00;100.00
36502;BME280;25393;46.108;3.390;2022-09-30T00:13:57;97046.69;;;8.75;100.00
36502;BME280;25393;46.108;3.390;2022-09-30T00:16:25;97081.06;;;9.04;100.00
36502;BME280;25393;46.108;3.390;2022-09-30T00:18:57;97074.38;;;9.08;100.00
36502;BME280;25393;46.108;3.390;2022-09-30T00:21:24;97064.91;;;8.99;100.00
36502;BME280;25393;46.108;3.390;2022-09-30T00:23:50;97073.00;;;8.97;100.00
36502;BME280;25393;46.108;3.390;2022-09-30T00:26:19;97047.69;;;8.74;100.00
36502;BME280;25393;46.108;3.390;2022-09-30T00:28:55;97078.88;;;8.93;100.00
36502;BME280;25393;46.108;3.390;2022-09-30T00:31:24;97088.78;;;8.91;100.00
36502;BME280;25393;46.108;3.390;2022-09-30T00:33:50;97090.16;;;9.01;100.00
36502;BME280;25393;46.108;3.390;2022-09-30T00:36:53;97096.00;;;8.97;100.00
36502;BME280;25393;46.108;3.390;2022-09-30T00:39:26;97094.06;;;8.91;100.00
36502;BME280;25393;46.108;3.390;2022-09-30T00:41:56;97096.19;;;8.95;100.00
36502;BME280;25393;46.108;3.390;2022-09-30T00:50:02;97107.47;;;8.89;100.00
36502;BME280;25393;46.108;3.390;2022-09-30T00:52:31;97107.47;;;8.89;100.00
36502;BME280;25393;46.108;3.390;2022-09-30T00:55:00;97094.44;;;8.88;100.00
36502;BME280;25393;46.108;3.390;2022-09-30T00:57:27;97111.56;;;8.92;100.00
36502;BME280;25393;46.108;3.390;2022-09-30T00:59:54;97079.84;;;8.77;100.00
36502;BME280;25393;46.108;3.390;2022-09-30T01:02:21;97109.94;;;9.06;100.00
36502;BME280;25393;46.108;3.390;2022-09-30T01:04:48;97111.38;;;9.08;100.00
36502;BME280;25393;46.108;3.390;2022-09-30T01:07:15;97076.59;;;8.90;100.00
36502;BME280;25393;46.108;3.390;2022-09-30T01:09:43;97103.38;;;9.01;100.00
36502;BME280;25393;46.108;3.390;2022-09-30T01:12:13;97107.69;;;9.17;100.00
36502;BME280;25393;46.108;3.390;2022-09-30T01:14:41;97114.63;;;9.18;100.00
36502;BME280;25393;46.108;3.390;2022-09-30T01:31:16;97118.34;;;9.38;100.00
36502;BME280;25393;46.108;3.390;2022-09-30T01:34:13;97121.97;;;9.37;100.00
36502;BME280;25393;46.108;3.390;2022-09-30T01:37:02;97088.34;;;9.31;100.00
36502;BME280;25393;46.108;3.390;2022-09-30T01:45:07;97095.25;;;9.47;100.00
36502;BME280;25393;46.108;3.390;2022-09-30T01:47:57;97089.69;;;9.42;100.00
36502;BME280;25393;46.108;3.390;2022-09-30T01:50:59;97115.63;;;9.32;100.00
36502;BME280;25393;46.108;3.390;2022-09-30T01:56:45;97119.34;;;9.23;100.00
36502;BME280;25393;46.108;3.390;2022-09-30T01:59:33;97128.47;;;9.20;100.00
36502;BME280;25393;46.108;3.390;2022-09-30T02:02:09;97124.28;;;9.11;100.00
36502;BME280;25393;46.108;3.390;2022-09-30T02:04:45;97127.84;;;9.18;100.00
36502;BME280;25393;46.108;3.390;2022-09-30T02:07:21;97133.66;;;9.28;100.00
36502;BME280;25393;46.108;3.390;2022-09-30T02:10:09;97143.88;;;9.31;100.00
36502;BME280;25393;46.108;3.390;2022-09-30T02:12:42;97134.22;;;9.24;100.00
36502;BME280;25393;46.108;3.390;2022-09-30T02:15:17;97141.78;;;9.41;100.00
36502;BME280;25393;46.108;3.390;2022-09-30T02:17:52;97136.66;;;9.40;100.00
36502;BME280;25393;46.108;3.390;2022-09-30T02:20:25;97129.53;;;9.40;100.00
36502;BME280;25393;46.108;3.390;2022-09-30T02:23:15;97105.28;;;9.37;100.00
36502;BME280;25393;46.108;3.390;2022-09-30T02:25:47;97106.28;;;9.36;100.00
36502;BME280;25393;46.108;3.390;2022-09-30T02:28:20;97123.19;;;9.49;100.00
36502;BME280;25393;46.108;3.390;2022-09-30T02:30:54;97118.69;;;9.50;100.00
36502;BME280;25393;46.108;3.390;2022-09-30T02:33:58;97132.63;;;9.59;100.00
36502;BME280;25393;46.108;3.390;2022-09-30T02:36:28;97108.53;;;9.53;100.00
36502;BME280;25393;46.108;3.390;2022-09-30T02:39:01;97112.03;;;9.54;100.00
36502;BME280;25393;46.108;3.390;2022-09-30T02:41:32;97124.25;;;9.55;100.00
36502;BME280;25393;46.108;3.390;2022-09-30T02:44:00;97127.88;;;9.54;100.00
36502;BME280;25393;46.108;3.390;2022-09-30T02:49:48;97128.91;;;9.53;100.00
36502;BME280;25393;46.108;3.390;2022-09-30T03:00:13;97119.94;;;9.69;100.00
36502;BME280;25393;46.108;3.390;2022-09-30T03:02:41;97116.47;;;9.68;100.00
36502;BME280;25393;46.108;3.390;2022-09-30T03:05:08;97108.53;;;9.68;100.00
36502;BME280;25393;46.108;3.390;2022-09-30T03:07:36;97104.34;;;9.74;100.00
36502;BME280;25393;46.108;3.390;2022-09-30T03:10:21;97126.66;;;9.86;100.00
36502;BME280;25393;46.108;3.390;2022-09-30T03:15:48;97147.19;;;9.98;100.00
36502;BME280;25393;46.108;3.390;2022-09-30T03:26:38;97164.59;;;9.93;100.00
36502;BME280;25393;46.108;3.390;2022-09-30T03:29:17;97149.31;;;9.88;100.00
36502;BME280;25393;46.108;3.390;2022-09-30T03:31:59;97161.34;;;9.91;100.00
36502;BME280;25393;46.108;3.390;2022-09-30T03:37:50;97172.00;;;9.97;100.00
36502;BME280;25393;46.108;3.390;2022-09-30T03:43:01;97159.84;;;10.03;100.00
36502;BME280;25393;46.108;3.390;2022-09-30T03:45:42;97174.72;;;10.04;100.00
36502;BME280;25393;46.108;3.390;2022-09-30T03:48:14;97175.81;;;10.10;100.00
36502;BME280;25393;46.108;3.390;2022-09-30T03:50:41;97169.63;;;10.02;100.00
36502;BME280;25393;46.108;3.390;2022-09-30T03:53:11;97181.38;;;10.00;100.00
36502;BME280;25393;46.108;3.390;2022-09-30T03:55:50;97176.91;;;10.00;100.00
36502;BME280;25393;46.108;3.390;2022-09-30T03:58:18;97184.13;;;10.07;100.00
36502;BME280;25393;46.108;3.390;2022-09-30T04:00:48;97155.28;;;9.97;100.00
36502;BME280;25393;46.108;3.390;2022-09-30T04:03:16;97170.88;;;10.07;100.00
36502;BME280;25393;46.108;3.390;2022-09-30T04:05:43;97184.56;;;10.10;100.00
36502;BME280;25393;46.108;3.390;2022-09-30T04:08:10;97193.16;;;10.12;100.00
36502;BME280;25393;46.108;3.390;2022-09-30T04:10:41;97204.03;;;10.17;100.00
36502;BME280;25393;46.108;3.390;2022-09-30T04:13:10;97212.63;;;10.19;100.00
36502;BME280;25393;46.108;3.390;2022-09-30T04:15:37;97215.72;;;10.23;100.00
36502;BME280;25393;46.108;3.390;2022-09-30T04:18:04;97188.25;;;10.09;100.00
36502;BME280;25393;46.108;3.390;2022-09-30T04:20:31;97202.94;;;10.26;100.00
36502;BME280;25393;46.108;3.390;2022-09-30T04:22:59;97211.63;;;10.20;100.00
36502;BME280;25393;46.108;3.390;2022-09-30T04:25:27;97217.28;;;10.17;100.00
36502;BME280;25393;46.108;3.390;2022-09-30T04:27:55;97219.56;;;10.06;100.00
36502;BME280;25393;46.108;3.390;2022-09-30T04:30:21;97209.97;;;10.04;100.00
36502;BME280;25393;46.108;3.390;2022-09-30T04:32:52;97210.34;;;10.01;100.00
36502;BME280;25393;46.108;3.390;2022-09-30T04:35:19;97227.59;;;10.12;100.00
36502;BME280;25393;46.108;3.390;2022-09-30T04:37:46;97231.97;;;10.05;100.00
36502;BME280;25393;46.108;3.390;2022-09-30T04:40:14;97234.16;;;10.01;100.00
36502;BME280;25393;46.108;3.390;2022-09-30T04:42:41;97223.50;;;9.95;100.00
36502;BME280;25393;46.108;3.390;2022-09-30T04:45:12;97234.81;;;9.89;100.00
36502;BME280;25393;46.108;3.390;2022-09-30T04:47:43;97240.28;;;9.87;100.00
36502;BME280;25393;46.108;3.390;2022-09-30T04:50:10;97247.03;;;9.75;100.00
36502;BME280;25393;46.108;3.390;2022-09-30T04:52:41;97227.88;;;9.59;100.00
36502;BME280;25393;46.108;3.390;2022-09-30T04:55:07;97243.31;;;9.70;100.00
36502;BME280;25393;46.108;3.390;2022-09-30T04:57:35;97242.94;;;9.73;100.00
36502;BME280;25393;46.108;3.390;2022-09-30T05:00:03;97244.59;;;9.74;100.00
36502;BME280;25393;46.108;3.390;2022-09-30T05:02:30;97251.50;;;9.75;100.00
36502;BME280;25393;46.108;3.390;2022-09-30T05:04:57;97221.13;;;9.56;100.00
36502;BME280;25393;46.108;3.390;2022-09-30T05:07:24;97212.44;;;9.33;100.00
36502;BME280;25393;46.108;3.390;2022-09-30T05:09:51;97240.16;;;9.37;100.00
36502;BME280;25393;46.108;3.390;2022-09-30T05:12:18;97261.28;;;9.60;100.00
36502;BME280;25393;46.108;3.390;2022-09-30T05:14:45;97250.22;;;9.41;100.00
36502;BME280;25393;46.108;3.390;2022-09-30T05:17:11;97262.06;;;9.31;100.00
36502;BME280;25393;46.108;3.390;2022-09-30T05:19:38;97244.84;;;9.12;100.00
36502;BME280;25393;46.108;3.390;2022-09-30T05:22:04;97272.88;;;9.21;100.00
36502;BME280;25393;46.108;3.390;2022-09-30T05:24:34;97264.03;;;9.14;100.00
36502;BME280;25393;46.108;3.390;2022-09-30T05:27:03;97244.25;;;8.87;100.00
36502;BME280;25393;46.108;3.390;2022-09-30T05:29:30;97285.34;;;9.13;100.00
36502;BME280;25393;46.108;3.390;2022-09-30T05:31:56;97292.59;;;8.96;100.00
36502;BME280;25393;46.108;3.390;2022-09-30T05:34:23;97292.47;;;8.89;100.00
36502;BME280;25393;46.108;3.390;2022-09-30T05:36:50;97305.22;;;8.86;100.00
36502;BME280;25393;46.108;3.390;2022-09-30T05:39:16;97314.91;;;8.93;100.00
36502;BME280;25393;46.108;3.390;2022-09-30T05:41:43;97308.31;;;8.89;100.00
36502;BME280;25393;46.108;3.390;2022-09-30T05:44:10;97312.78;;;8.89;100.00
36502;BME280;25393;46.108;3.390;2022-09-30T05:46:36;97300.44;;;8.81;100.00
36502;BME280;25393;46.108;3.390;2022-09-30T05:49:03;97300.91;;;8.85;100.00
36502;BME280;25393;46.108;3.390;2022-09-30T05:51:29;97321.94;;;9.01;100.00
36502;BME280;25393;46.108;3.390;2022-09-30T05:53:58;97306.63;;;8.96;100.00
36502;BME280;25393;46.108;3.390;2022-09-30T05:56:25;97324.47;;;9.17;100.00
36502;BME280;25393;46.108;3.390;2022-09-30T05:58:52;97324.75;;;9.22;100.00
36502;BME280;25393;46.108;3.390;2022-09-30T06:01:19;97328.31;;;9.15;100.00
36502;BME280;25393;46.108;3.390;2022-09-30T06:03:45;97331.69;;;9.23;100.00
36502;BME280;25393;46.108;3.390;2022-09-30T06:06:14;97340.16;;;9.19;100.00
36502;BME280;25393;46.108;3.390;2022-09-30T06:08:41;97341.28;;;9.24;100.00
36502;BME280;25393;46.108;3.390;2022-09-30T06:11:20;97350.19;;;9.23;100.00
36502;BME280;25393;46.108;3.390;2022-09-30T06:13:50;97353.56;;;9.17;100.00
36502;BME280;25393;46.108;3.390;2022-09-30T06:16:18;97352.16;;;9.07;100.00
36502;BME280;25393;46.108;3.390;2022-09-30T06:18:45;97366.72;;;9.02;100.00
36502;BME280;25393;46.108;3.390;2022-09-30T06:21:13;97372.00;;;9.02;100.00
36502;BME280;25393;46.108;3.390;2022-09-30T06:23:41;97364.22;;;9.01;100.00
36502;BME280;25393;46.108;3.390;2022-09-30T06:26:10;97366.22;;;8.99;100.00
36502;BME280;25393;46.108;3.390;2022-09-30T06:28:37;97369.34;;;9.02;100.00
36502;BME280;25393;46.108;3.390;2022-09-30T06:31:07;97399.50;;;9.16;100.00
36502;BME280;25393;46.108;3.390;2022-09-30T06:33:36;97389.28;;;9.13;100.00
36502;BME280;25393;46.108;3.390;2022-09-30T06:36:07;97405.25;;;9.20;100.00
36502;BME280;25393;46.108;3.390;2022-09-30T06:38:36;97400.78;;;9.20;100.00
36502;BME280;25393;46.108;3.390;2022-09-30T06:41:05;97380.44;;;8.98;100.00
36502;BME280;25393;46.108;3.390;2022-09-30T06:43:32;97410.44;;;9.13;100.00
36502;BME280;25393;46.108;3.390;2022-09-30T06:46:20;97420.00;;;9.14;100.00
36502;BME280;25393;46.108;3.390;2022-09-30T06:48:56;97420.97;;;9.21;100.00
36502;BME280;25393;46.108;3.390;2022-09-30T06:51:36;97417.25;;;9.30;100.00
36502;BME280;25393;46.108;3.390;2022-09-30T06:54:02;97416.53;;;9.36;100.00
36502;BME280;25393;46.108;3.390;2022-09-30T06:56:29;97393.75;;;9.13;100.00
36502;BME280;25393;46.108;3.390;2022-09-30T06:58:56;97422.75;;;9.29;100.00
36502;BME280;25393;46.108;3.390;2022-09-30T07:01:23;97442.31;;;9.42;100.00
36502;BME280;25393;46.108;3.390;2022-09-30T07:03:50;97439.47;;;9.44;100.00
36502;BME280;25393;46.108;3.390;2022-09-30T07:06:24;97419.84;;;9.38;100.00
36502;BME280;25393;46.108;3.390;2022-09-30T07:08:51;97445.19;;;9.56;100.00
36502;BME280;25393;46.108;3.390;2022-09-30T07:11:19;97447.13;;;9.62;100.00
36502;BME280;25393;46.108;3.390;2022-09-30T07:13:47;97414.25;;;9.33;100.00
36502;BME280;25393;46.108;3.390;2022-09-30T07:16:17;97459.00;;;9.66;100.00
36502;BME280;25393;46.108;3.390;2022-09-30T07:18:44;97465.47;;;9.63;100.00
36502;BME280;25393;46.108;3.390;2022-09-30T07:21:14;97437.69;;;9.36;100.00
36502;BME280;25393;46.108;3.390;2022-09-30T07:23:43;97465.44;;;9.40;100.00
36502;BME280;25393;46.108;3.390;2022-09-30T07:26:14;97457.97;;;9.21;100.00
36502;BME280;25393;46.108;3.390;2022-09-30T07:28:42;97470.19;;;9.22;100.00
36502;BME280;25393;46.108;3.390;2022-09-30T07:31:14;97479.91;;;9.30;100.00
36502;BME280;25393;46.108;3.390;2022-09-30T07:34:04;97481.69;;;9.37;100.00
36502;BME280;25393;46.108;3.390;2022-09-30T07:36:33;97482.75;;;9.51;100.00
36502;BME280;25393;46.108;3.390;2022-09-30T07:39:21;97467.69;;;9.51;100.00
36502;BME280;25393;46.108;3.390;2022-09-30T07:41:48;97469.13;;;9.62;100.00
36502;BME280;25393;46.108;3.390;2022-09-30T07:44:15;97466.94;;;9.66;100.00
36502;BME280;25393;46.108;3.390;2022-09-30T07:46:43;97495.91;;;9.82;100.00
36502;BME280;25393;46.108;3.390;2022-09-30T07:49:14;97436.84;;;9.67;100.00
36502;BME280;25393;46.108;3.390;2022-09-30T07:51:56;97492.28;;;10.06;100.00
36502;BME280;25393;46.108;3.390;2022-09-30T07:54:27;97469.44;;;10.04;100.00
36502;BME280;25393;46.108;3.390;2022-09-30T07:56:54;97494.72;;;10.30;100.00
36502;BME280;25393;46.108;3.390;2022-09-30T07:59:43;97486.25;;;10.34;100.00
36502;BME280;25393;46.108;3.390;2022-09-30T08:02:14;97505.34;;;10.59;100.00
36502;BME280;25393;46.108;3.390;2022-09-30T08:04:41;97483.34;;;10.59;100.00
36502;BME280;25393;46.108;3.390;2022-09-30T08:07:11;97480.97;;;10.64;100.00
36502;BME280;25393;46.108;3.390;2022-09-30T08:09:38;97475.28;;;10.67;100.00
36502;BME280;25393;46.108;3.390;2022-09-30T08:50:48;97552.97;;;12.33;100.00
36502;BME280;25393;46.108;3.390;2022-09-30T08:53:25;97529.66;;;12.35;100.00
36502;BME280;25393;46.108;3.390;2022-09-30T08:55:53;97553.88;;;12.68;100.00
36502;BME280;25393;46.108;3.390;2022-09-30T08:58:28;97563.47;;;12.97;99.20
36502;BME280;25393;46.108;3.390;2022-09-30T09:01:01;97553.59;;;13.12;96.99
36502;BME280;25393;46.108;3.390;2022-09-30T09:03:30;97540.50;;;13.17;94.80
36502;BME280;25393;46.108;3.390;2022-09-30T09:14:05;97540.09;;;13.61;91.94
36502;BME280;25393;46.108;3.390;2022-09-30T09:16:58;97526.91;;;13.46;89.81
36502;BME280;25393;46.108;3.390;2022-09-30T09:19:41;97559.31;;;13.57;90.23
36502;BME280;25393;46.108;3.390;2022-09-30T09:22:09;97536.53;;;13.47;90.72
36502;BME280;25393;46.108;3.390;2022-09-30T09:24:45;97541.13;;;13.67;90.48
36502;BME280;25393;46.108;3.390;2022-09-30T09:27:24;97545.31;;;14.15;90.22
36502;BME280;25393;46.108;3.390;2022-09-30T09:32:27;97551.69;;;14.14;86.31
36502;BME280;25393;46.108;3.390;2022-09-30T09:35:01;97534.19;;;13.79;86.60
36502;BME280;25393;46.108;3.390;2022-09-30T09:37:41;97572.09;;;13.87;87.41
36502;BME280;25393;46.108;3.390;2022-09-30T09:43:14;97580.75;;;13.89;85.15
36502;BME280;25393;46.108;3.390;2022-09-30T09:45:55;97562.44;;;13.80;87.35
36502;BME280;25393;46.108;3.390;2022-09-30T09:48:26;97584.66;;;14.00;87.36
36502;BME280;25393;46.108;3.390;2022-09-30T09:51:05;97560.28;;;14.03;86.48
36502;BME280;25393;46.108;3.390;2022-09-30T09:53:51;97527.25;;;13.91;85.95
36502;BME280;25393;46.108;3.390;2022-09-30T09:56:21;97574.84;;;14.14;86.32
36502;BME280;25393;46.108;3.390;2022-09-30T09:59:14;97584.88;;;14.18;86.15
36502;BME280;25393;46.108;3.390;2022-09-30T10:01:46;97590.22;;;14.18;85.79
36502;BME280;25393;46.108;3.390;2022-09-30T10:04:22;97555.53;;;13.98;84.53
36502;BME280;25393;46.108;3.390;2022-09-30T10:09:30;97587.63;;;14.71;85.47
36502;BME280;25393;46.108;3.390;2022-09-30T10:15:04;;;;14.93;
36502;BME280;25393;46.108;3.390;2022-09-30T10:17:37;97568.78;;;14.59;78.72
36502;BME280;25393;46.108;3.390;2022-09-30T10:20:29;97590.72;;;14.55;79.05
36502;BME280;25393;46.108;3.390;2022-09-30T10:23:09;97583.31;;;14.43;80.69
36502;BME280;25393;46.108;3.390;2022-09-30T10:25:53;97590.28;;;15.04;79.07
36502;BME280;25393;46.108;3.390;2022-09-30T10:28:26;97584.34;;;16.17;75.92
36502;BME280;25393;46.108;3.390;2022-09-30T10:30:57;97573.03;;;18.11;70.17
36502;BME280;25393;46.108;3.390;2022-09-30T10:33:35;97578.28;;;19.87;59.12
36502;BME280;25393;46.108;3.390;2022-09-30T10:36:13;97582.75;;;21.16;55.38
36502;BME280;25393;46.108;3.390;2022-09-30T10:38:48;97588.38;;;20.98;51.29
36502;BME280;25393;46.108;3.390;2022-09-30T10:41:23;97586.28;;;21.00;53.51
36502;BME280;25393;46.108;3.390;2022-09-30T10:43:55;97546.59;;;20.96;50.67
36502;BME280;25393;46.108;3.390;2022-09-30T10:46:32;97585.50;;;21.76;51.27
36502;BME280;25393;46.108;3.390;2022-09-30T10:49:30;97598.44;;;22.71;47.95
36502;BME280;25393;46.108;3.390;2022-09-30T10:51:56;97585.59;;;23.20;45.19
36502;BME280;25393;46.108;3.390;2022-09-30T10:57:23;97593.03;;;23.40;44.14
36502;BME280;25393;46.108;3.390;2022-09-30T11:02:39;97602.50;;;20.72;48.91
36502;BME280;25393;46.108;3.390;2022-09-30T11:08:04;97600.00;;;20.37;51.47
36502;BME280;25393;46.108;3.390;2022-09-30T11:13:55;97605.09;;;20.67;48.35
36502;BME280;25393;46.108;3.390;2022-09-30T11:16:27;97606.22;;;20.54;50.47
36502;BME280;25393;46.108;3.390;2022-09-30T11:22:17;97598.38;;;21.91;49.15
36502;BME280;25393;46.108;3.390;2022-09-30T11:24:43;97585.13;;;22.92;45.96
36502;BME280;25393;46.108;3.390;2022-09-30T11:27:26;97594.44;;;23.48;44.91
36502;BME280;25393;46.108;3.390;2022-09-30T11:38:21;97618.00;;;22.08;46.29
36502;BME280;25393;46.108;3.390;2022-09-30T11:41:04;97609.34;;;22.55;45.91
36502;BME280;25393;46.108;3.390;2022-09-30T11:46:43;97602.03;;;23.51;42.05
36502;BME280;25393;46.108;3.390;2022-09-30T12:00:13;97618.34;;;22.92;42.61
36502;BME280;25393;46.108;3.390;2022-09-30T12:02:47;97616.41;;;23.19;43.21
36502;BME280;25393;46.108;3.390;2022-09-30T12:05:24;97590.00;;;23.31;40.60
36502;BME280;25393;46.108;3.390;2022-09-30T12:10:47;97606.22;;;23.31;41.57
36502;BME280;25393;46.108;3.390;2022-09-30T12:13:23;97611.44;;;23.90;42.95
36502;BME280;25393;46.108;3.390;2022-09-30T12:15:53;97607.34;;;24.60;41.72
36502;BME280;25393;46.108;3.390;2022-09-30T12:18:26;97620.19;;;25.05;41.06
36502;BME280;25393;46.108;3.390;2022-09-30T12:20:59;97620.69;;;25.27;38.82
36502;BME280;25393;46.108;3.390;2022-09-30T12:23:30;97610.97;;;24.91;38.84
36502;BME280;25393;46.108;3.390;2022-09-30T12:25:59;97613.09;;;25.34;39.89
36502;BME280;25393;46.108;3.390;2022-09-30T12:28:34;97607.38;;;25.66;36.86
36502;BME280;25393;46.108;3.390;2022-09-30T12:34:07;97605.19;;;25.73;36.44
36502;BME280;25393;46.108;3.390;2022-09-30T12:36:53;97609.25;;;25.75;36.59
36502;BME280;25393;46.108;3.390;2022-09-30T12:39:49;97603.03;;;25.70;35.86
36502;BME280;25393;46.108;3.390;2022-09-30T12:45:25;97592.28;;;26.04;36.74
36502;BME280;25393;46.108;3.390;2022-09-30T12:48:04;97602.50;;;26.37;35.58
36502;BME280;25393;46.108;3.390;2022-09-30T12:50:47;97603.84;;;26.40;34.85
36502;BME280;25393;46.108;3.390;2022-09-30T12:53:18;97608.53;;;26.68;34.08
36502;BME280;25393;46.108;3.390;2022-09-30T12:55:46;97607.22;;;26.60;34.67
36502;BME280;25393;46.108;3.390;2022-09-30T12:58:25;97590.16;;;26.60;34.44
36502;BME280;25393;46.108;3.390;2022-09-30T13:01:29;97610.63;;;26.42;35.34
36502;BME280;25393;46.108;3.390;2022-09-30T13:14:41;97611.88;;;23.30;39.00
36502;BME280;25393;46.108;3.390;2022-09-30T13:27:45;97610.94;;;25.21;35.29
36502;BME280;25393;46.108;3.390;2022-09-30T13:40:53;97618.41;;;23.71;37.36
36502;BME280;25393;46.108;3.390;2022-09-30T13:43:37;97612.69;;;24.19;37.14
36502;BME280;25393;46.108;3.390;2022-09-30T13:47:09;97602.69;;;24.30;37.19
36502;BME280;25393;46.108;3.390;2022-09-30T13:49:22;97622.75;;;24.39;36.20
36502;BME280;25393;46.108;3.390;2022-09-30T13:51:53;97616.25;;;23.73;35.99
36502;BME280;25393;46.108;3.390;2022-09-30T13:54:41;97629.22;;;23.34;37.42
36502;BME280;25393;46.108;3.390;2022-09-30T13:57:20;97633.66;;;23.45;37.06
36502;BME280;25393;46.108;3.390;2022-09-30T14:00:17;97624.97;;;23.90;35.73
36502;BME280;25393;46.108;3.390;2022-09-30T14:03:05;97614.22;;;24.10;36.72
36502;BME280;25393;46.108;3.390;2022-09-30T14:14:36;97612.78;;;23.87;36.39
36502;BME280;25393;46.108;3.390;2022-09-30T14:16:55;97612.47;;;23.74;36.65
36502;BME280;25393;46.108;3.390;2022-09-30T14:19:42;97621.22;;;23.96;36.15
36502;BME280;25393;46.108;3.390;2022-09-30T14:22:13;97598.97;;;23.89;35.87
36502;BME280;25393;46.108;3.390;2022-09-30T14:24:40;97608.53;;;24.02;36.83
36502;BME280;25393;46.108;3.390;2022-09-30T14:32:27;97608.22;;;21.42;39.57
36502;BME280;25393;46.108;3.390;2022-09-30T14:34:56;97627.59;;;21.61;39.70
36502;BME280;25393;46.108;3.390;2022-09-30T14:37:29;97617.88;;;22.20;39.75
36502;BME280;25393;46.108;3.390;2022-09-30T14:39:57;97610.41;;;22.54;38.64
36502;BME280;25393;46.108;3.390;2022-09-30T14:42:32;97619.31;;;22.76;38.70
36502;BME280;25393;46.108;3.390;2022-09-30T14:45:05;97624.53;;;22.61;38.94
36502;BME280;25393;46.108;3.390;2022-09-30T14:47:43;97618.75;;;22.25;38.43
36502;BME280;25393;46.108;3.390;2022-09-30T14:50:24;97604.59;;;21.75;38.80
36502;BME280;25393;46.108;3.390;2022-09-30T14:52:52;97629.19;;;21.57;39.25
36502;BME280;25393;46.108;3.390;2022-09-30T14:55:22;97640.66;;;21.69;40.51
36502;BME280;25393;46.108;3.390;2022-09-30T14:57:54;97606.69;;;21.89;38.80
36502;BME280;25393;46.108;3.390;2022-09-30T15:00:30;97626.50;;;21.78;38.74
36502;BME280;25393;46.108;3.390;2022-09-30T15:02:58;97619.22;;;21.79;39.85
36502;BME280;25393;46.108;3.390;2022-09-30T15:05:25;97605.78;;;21.24;39.52
36502;BME280;25393;46.108;3.390;2022-09-30T15:07:53;97580.69;;;20.90;40.90
36502;BME280;25393;46.108;3.390;2022-09-30T15:10:22;97582.50;;;21.01;41.65
36502;BME280;25393;46.108;3.390;2022-09-30T15:12:50;97578.19;;;21.17;40.77
36502;BME280;25393;46.108;3.390;2022-09-30T15:15:23;97613.66;;;21.47;40.69
36502;BME280;25393;46.108;3.390;2022-09-30T15:17:50;97601.19;;;20.58;42.00
36502;BME280;25393;46.108;3.390;2022-09-30T15:20:43;97600.34;;;19.49;42.62
36502;BME280;25393;46.108;3.390;2022-09-30T15:23:15;97619.81;;;19.21;44.10
36502;BME280;25393;46.108;3.390;2022-09-30T15:25:44;97595.19;;;19.13;43.74
36502;BME280;25393;46.108;3.390;2022-09-30T15:28:14;97584.78;;;19.16;42.77
36502;BME280;25393;46.108;3.390;2022-09-30T15:30:40;97601.13;;;19.15;43.89
36502;BME280;25393;46.108;3.390;2022-09-30T15:33:15;97624.03;;;19.17;44.83
36502;BME280;25393;46.108;3.390;2022-09-30T15:35:44;97617.38;;;19.20;45.69
36502;BME280;25393;46.108;3.390;2022-09-30T15:38:24;97572.72;;;18.72;44.80
36502;BME280;25393;46.108;3.390;2022-09-30T15:40:58;97611.84;;;18.80;45.93
36502;BME280;25393;46.108;3.390;2022-09-30T15:46:15;97605.53;;;18.33;46.88
36502;BME280;25393;46.108;3.390;2022-09-30T15:48:42;97633.28;;;18.38;47.25
36502;BME280;25393;46.108;3.390;2022-09-30T15:53:52;97606.50;;;17.72;47.14
36502;BME280;25393;46.108;3.390;2022-09-30T15:59:11;97647.59;;;17.23;49.03
36502;BME280;25393;46.108;3.390;2022-09-30T16:01:40;97660.09;;;17.29;49.63
36502;BME280;25393;46.108;3.390;2022-09-30T16:12:02;97667.94;;;16.75;48.99
36502;BME280;25393;46.108;3.390;2022-09-30T16:14:38;97683.28;;;16.55;50.22
36502;BME280;25393;46.108;3.390;2022-09-30T16:19:59;97689.69;;;16.09;51.59
36502;BME280;25393;46.108;3.390;2022-09-30T16:27:47;97694.66;;;15.99;55.36
36502;BME280;25393;46.108;3.390;2022-09-30T16:30:16;97705.56;;;16.04;55.17
36502;BME280;25393;46.108;3.390;2022-09-30T16:32:45;97680.72;;;15.84;55.51
36502;BME280;25393;46.108;3.390;2022-09-30T16:35:24;97709.28;;;15.96;55.46
36502;BME280;25393;46.108;3.390;2022-09-30T16:37:58;97697.78;;;15.76;55.41
36502;BME280;25393;46.108;3.390;2022-09-30T16:40:26;97721.22;;;15.81;56.57
36502;BME280;25393;46.108;3.390;2022-09-30T16:42:54;97727.59;;;15.80;56.34
36502;BME280;25393;46.108;3.390;2022-09-30T16:45:21;97724.13;;;15.66;56.92
36502;BME280;25393;46.108;3.390;2022-09-30T16:47:48;97708.53;;;15.57;57.20
36502;BME280;25393;46.108;3.390;2022-09-30T16:50:39;97744.28;;;15.69;57.57
36502;BME280;25393;46.108;3.390;2022-09-30T16:53:08;97740.97;;;15.67;59.84
36502;BME280;25393;46.108;3.390;2022-09-30T16:55:40;97732.56;;;15.57;58.53
36502;BME280;25393;46.108;3.390;2022-09-30T16:58:09;97727.44;;;15.48;57.48
36502;BME280;25393;46.108;3.390;2022-09-30T17:00:40;97744.91;;;15.44;59.40
36502;BME280;25393;46.108;3.390;2022-09-30T17:03:14;97741.59;;;15.29;61.61
36502;BME280;25393;46.108;3.390;2022-09-30T17:05:43;97743.44;;;15.09;62.26
36502;BME280;25393;46.108;3.390;2022-09-30T17:08:16;97743.63;;;14.94;63.34
36502;BME280;25393;46.108;3.390;2022-09-30T17:10:44;97757.16;;;14.80;64.81
36502;BME280;25393;46.108;3.390;2022-09-30T17:13:15;97720.13;;;14.44;66.33
36502;BME280;25393;46.108;3.390;2022-09-30T17:15:47;97749.88;;;14.47;66.88
36502;BME280;25393;46.108;3.390;2022-09-30T17:18:14;97743.69;;;14.34;67.85
36502;BME280;25393;46.108;3.390;2022-09-30T17:20:46;97726.31;;;14.04;68.48